sensor_id;sensor_type;location;lat;lon;timestamp;temperature;humidity
37050;DHT22;22958;51.232;6.826;2023-07-13T00:02:05;18.30;99.90
37050;DHT22;22958;51.232;6.826;2023-07-13T00:04:30;18.20;99.90
37050;DHT22;22958;51.232;6.826;2023-07-13T00:06:56;18.20;99.90
37050;DHT22;22958;51.232;6.826;2023-07-13T00:09:22;18.10;99.90
37050;DHT22;22958;51.232;6.826;2023-07-13T00:11:51;18.00;99.90
37050;DHT22;22958;51.232;6.826;2023-07-13T00:14:17;18.00;99.90
37050;DHT22;22958;51.232;6.826;2023-07-13T00:16:43;17.90;99.90
37050;DHT22;22958;51.232;6.826;2023-07-13T00:19:10;17.90;99.90
37050;DHT22;22958;51.232;6.826;2023-07-13T00:21:35;17.90;99.90
37050;DHT22;22958;51.232;6.826;2023-07-13T00:24:01;17.80;99.90
37050;DHT22;22958;51.232;6.826;2023-07-13T00:26:26;17.80;99.90
37050;DHT22;22958;51.232;6.826;2023-07-13T00:28:52;17.80;99.90
37050;DHT22;22958;51.232;6.826;2023-07-13T00:31:18;17.80;99.90
37050;DHT22;22958;51.232;6.826;2023-07-13T00:33:44;17.80;99.90
37050;DHT22;22958;51.232;6.826;2023-07-13T00:36:10;17.80;99.90
37050;DHT22;22958;51.232;6.826;2023-07-13T00:38:36;17.70;99.90
37050;DHT22;22958;51.232;6.826;2023-07-13T00:41:03;17.70;99.90
37050;DHT22;22958;51.232;6.826;2023-07-13T00:43:29;17.70;99.90
37050;DHT22;22958;51.232;6.826;2023-07-13T00:46:21;17.60;99.90
37050;DHT22;22958;51.232;6.826;2023-07-13T00:48:48;17.60;99.90
37050;DHT22;22958;51.232;6.826;2023-07-13T00:51:27;17.60;99.90
37050;DHT22;22958;51.232;6.826;2023-07-13T00:53:54;17.60;99.90
37050;DHT22;22958;51.232;6.826;2023-07-13T00:56:22;17.50;99.90
37050;DHT22;22958;51.232;6.826;2023-07-13T00:58:47;17.50;99.90
37050;DHT22;22958;51.232;6.826;2023-07-13T01:01:13;17.40;99.90
37050;DHT22;22958;51.232;6.826;2023-07-13T01:03:39;17.40;99.90
37050;DHT22;22958;51.232;6.826;2023-07-13T01:06:06;17.30;99.90
37050;DHT22;22958;51.232;6.826;2023-07-13T01:08:32;17.30;99.90
37050;DHT22;22958;51.232;6.826;2023-07-13T01:10:57;17.20;99.90
37050;DHT22;22958;51.232;6.826;2023-07-13T01:13:26;17.10;99.90
37050;DHT22;22958;51.232;6.826;2023-07-13T01:15:53;17.10;99.90
37050;DHT22;22958;51.232;6.826;2023-07-13T01:18:22;17.10;99.90
37050;DHT22;22958;51.232;6.826;2023-07-13T01:20:57;17.00;99.90
37050;DHT22;22958;51.232;6.826;2023-07-13T01:23:24;17.00;99.90
37050;DHT22;22958;51.232;6.826;2023-07-13T01:25:51;17.00;99.90
37050;DHT22;22958;51.232;6.826;2023-07-13T01:28:17;16.90;99.90
37050;DHT22;22958;51.232;6.826;2023-07-13T01:30:44;17.00;99.90
37050;DHT22;22958;51.232;6.826;2023-07-13T01:33:17;16.90;99.90
37050;DHT22;22958;51.232;6.826;2023-07-13T01:35:47;16.90;99.90
37050;DHT22;22958;51.232;6.826;2023-07-13T01:38:19;16.90;99.90
37050;DHT22;22958;51.232;6.826;2023-07-13T01:40:45;16.80;99.90
37050;DHT22;22958;51.232;6.826;2023-07-13T01:43:11;16.70;99.90
37050;DHT22;22958;51.232;6.826;2023-07-13T01:45:37;16.70;99.90
37050;DHT22;22958;51.232;6.826;2023-07-13T01:48:02;16.70;99.90
37050;DHT22;22958;51.232;6.826;2023-07-13T01:50:28;16.70;99.90
37050;DHT22;22958;51.232;6.826;2023-07-13T01:52:54;16.70;99.90
37050;DHT22;22958;51.232;6.826;2023-07-13T01:55:21;16.70;99.90
37050;DHT22;22958;51.232;6.826;2023-07-13T01:57:47;16.70;99.90
37050;DHT22;22958;51.232;6.826;2023-07-13T02:00:13;16.80;99.90
37050;DHT22;22958;51.232;6.826;2023-07-13T02:02:39;16.80;99.90
37050;DHT22;22958;51.232;6.826;2023-07-13T02:05:05;16.80;99.90
37050;DHT22;22958;51.232;6.826;2023-07-13T02:07:31;16.80;99.90
37050;DHT22;22958;51.232;6.826;2023-07-13T02:09:56;16.70;99.90
37050;DHT22;22958;51.232;6.826;2023-07-13T02:12:22;16.70;99.90
37050;DHT22;22958;51.232;6.826;2023-07-13T02:14:47;16.70;99.90
37050;DHT22;22958;51.232;6.826;2023-07-13T02:17:13;16.70;99.90
37050;DHT22;22958;51.232;6.826;2023-07-13T02:19:39;16.70;99.90
37050;DHT22;22958;51.232;6.826;2023-07-13T02:22:04;16.60;99.90
37050;DHT22;22958;51.232;6.826;2023-07-13T02:24:30;16.60;99.90
37050;DHT22;22958;51.232;6.826;2023-07-13T02:26:55;16.60;99.90
37050;DHT22;22958;51.232;6.826;2023-07-13T02:29:21;16.60;99.90
37050;DHT22;22958;51.232;6.826;2023-07-13T02:31:46;16.60;99.90
37050;DHT22;22958;51.232;6.826;2023-07-13T02:34:12;16.60;99.90
37050;DHT22;22958;51.232;6.826;2023-07-13T02:36:38;16.50;99.90
37050;DHT22;22958;51.232;6.826;2023-07-13T02:39:04;16.60;99.90
37050;DHT22;22958;51.232;6.826;2023-07-13T02:41:30;16.60;99.90
37050;DHT22;22958;51.232;6.826;2023-07-13T02:43:58;16.50;99.90
37050;DHT22;22958;51.232;6.826;2023-07-13T02:46:30;16.50;99.90
37050;DHT22;22958;51.232;6.826;2023-07-13T02:48:55;16.50;99.90
37050;DHT22;22958;51.232;6.826;2023-07-13T02:51:21;16.40;99.90
37050;DHT22;22958;51.232;6.826;2023-07-13T02:53:46;16.40;99.90
37050;DHT22;22958;51.232;6.826;2023-07-13T02:56:12;16.40;99.90
37050;DHT22;22958;51.232;6.826;2023-07-13T02:58:37;16.40;99.90
37050;DHT22;22958;51.232;6.826;2023-07-13T03:01:11;16.40;99.90
37050;DHT22;22958;51.232;6.826;2023-07-13T03:03:37;16.30;99.90
37050;DHT22;22958;51.232;6.826;2023-07-13T03:06:04;16.30;99.90
37050;DHT22;22958;51.232;6.826;2023-07-13T03:08:30;16.30;99.90
37050;DHT22;22958;51.232;6.826;2023-07-13T03:11:23;16.20;99.90
37050;DHT22;22958;51.232;6.826;2023-07-13T03:13:48;16.20;99.90
37050;DHT22;22958;51.232;6.826;2023-07-13T03:16:15;16.20;99.90
37050;DHT22;22958;51.232;6.826;2023-07-13T03:18:45;16.20;99.90
37050;DHT22;22958;51.232;6.826;2023-07-13T03:21:11;16.10;99.90
37050;DHT22;22958;51.232;6.826;2023-07-13T03:23:37;16.10;99.90
37050;DHT22;22958;51.232;6.826;2023-07-13T03:26:05;16.00;99.90
37050;DHT22;22958;51.232;6.826;2023-07-13T03:28:32;16.00;99.90
37050;DHT22;22958;51.232;6.826;2023-07-13T03:31:07;16.00;99.90
37050;DHT22;22958;51.232;6.826;2023-07-13T03:33:34;16.00;99.90
37050;DHT22;22958;51.232;6.826;2023-07-13T03:35:59;16.00;99.90
37050;DHT22;22958;51.232;6.826;2023-07-13T03:38:25;16.00;99.90
37050;DHT22;22958;51.232;6.826;2023-07-13T03:40:52;15.90;99.90
37050;DHT22;22958;51.232;6.826;2023-07-13T03:43:17;16.00;99.90
37050;DHT22;22958;51.232;6.826;2023-07-13T03:45:43;16.10;99.90
37050;DHT22;22958;51.232;6.826;2023-07-13T03:48:09;16.10;99.90
37050;DHT22;22958;51.232;6.826;2023-07-13T03:50:34;16.10;99.90
37050;DHT22;22958;51.232;6.826;2023-07-13T03:53:00;16.10;99.90
37050;DHT22;22958;51.232;6.826;2023-07-13T03:55:26;16.10;99.90
37050;DHT22;22958;51.232;6.826;2023-07-13T03:57:58;16.10;99.90
37050;DHT22;22958;51.232;6.826;2023-07-13T04:00:24;16.10;99.90
37050;DHT22;22958;51.232;6.826;2023-07-13T04:02:50;16.10;99.90
37050;DHT22;22958;51.232;6.826;2023-07-13T04:05:15;16.10;99.90
37050;DHT22;22958;51.232;6.826;2023-07-13T04:07:41;16.10;99.90
37050;DHT22;22958;51.232;6.826;2023-07-13T04:10:07;16.10;99.90
37050;DHT22;22958;51.232;6.826;2023-07-13T04:12:33;16.00;99.90
37050;DHT22;22958;51.232;6.826;2023-07-13T04:14:58;16.00;99.90
37050;DHT22;22958;51.232;6.826;2023-07-13T04:17:24;16.00;99.90
37050;DHT22;22958;51.232;6.826;2023-07-13T04:19:49;16.00;99.90
37050;DHT22;22958;51.232;6.826;2023-07-13T04:22:15;16.00;99.90
37050;DHT22;22958;51.232;6.826;2023-07-13T04:24:40;16.00;99.90
37050;DHT22;22958;51.232;6.826;2023-07-13T04:27:06;16.00;99.90
37050;DHT22;22958;51.232;6.826;2023-07-13T04:29:32;16.00;99.90
37050;DHT22;22958;51.232;6.826;2023-07-13T04:31:57;16.00;99.90
37050;DHT22;22958;51.232;6.826;2023-07-13T04:34:23;16.10;99.90
37050;DHT22;22958;51.232;6.826;2023-07-13T04:36:49;16.10;99.90
37050;DHT22;22958;51.232;6.826;2023-07-13T04:39:15;16.10;99.90
37050;DHT22;22958;51.232;6.826;2023-07-13T04:41:40;16.10;99.90
37050;DHT22;22958;51.232;6.826;2023-07-13T04:44:06;16.10;99.90
37050;DHT22;22958;51.232;6.826;2023-07-13T04:46:31;16.10;99.90
37050;DHT22;22958;51.232;6.826;2023-07-13T04:48:57;16.10;99.90
37050;DHT22;22958;51.232;6.826;2023-07-13T04:51:24;16.10;99.90
37050;DHT22;22958;51.232;6.826;2023-07-13T04:53:49;16.00;99.90
37050;DHT22;22958;51.232;6.826;2023-07-13T04:56:15;16.00;99.90
37050;DHT22;22958;51.232;6.826;2023-07-13T04:58:40;16.00;99.90
37050;DHT22;22958;51.232;6.826;2023-07-13T05:01:06;16.10;99.90
37050;DHT22;22958;51.232;6.826;2023-07-13T05:03:32;16.10;99.90
37050;DHT22;22958;51.232;6.826;2023-07-13T05:06:04;16.10;99.90
37050;DHT22;22958;51.232;6.826;2023-07-13T05:08:29;16.10;99.90
37050;DHT22;22958;51.232;6.826;2023-07-13T05:10:55;16.10;99.90
37050;DHT22;22958;51.232;6.826;2023-07-13T05:13:22;16.20;99.90
37050;DHT22;22958;51.232;6.826;2023-07-13T05:15:59;16.30;99.90
37050;DHT22;22958;51.232;6.826;2023-07-13T05:18:25;16.30;99.90
37050;DHT22;22958;51.232;6.826;2023-07-13T05:21:03;16.40;99.90
37050;DHT22;22958;51.232;6.826;2023-07-13T05:23:30;16.40;99.90
37050;DHT22;22958;51.232;6.826;2023-07-13T05:25:56;16.40;99.90
37050;DHT22;22958;51.232;6.826;2023-07-13T05:28:22;16.50;99.90
37050;DHT22;22958;51.232;6.826;2023-07-13T05:30:48;16.50;99.90
37050;DHT22;22958;51.232;6.826;2023-07-13T05:33:14;16.50;99.90
37050;DHT22;22958;51.232;6.826;2023-07-13T05:35:39;16.60;99.90
37050;DHT22;22958;51.232;6.826;2023-07-13T05:38:05;16.70;99.90
37050;DHT22;22958;51.232;6.826;2023-07-13T05:40:31;16.70;99.90
37050;DHT22;22958;51.232;6.826;2023-07-13T05:42:57;16.70;99.90
37050;DHT22;22958;51.232;6.826;2023-07-13T05:45:22;16.70;99.90
37050;DHT22;22958;51.232;6.826;2023-07-13T05:47:48;16.80;99.90
37050;DHT22;22958;51.232;6.826;2023-07-13T05:50:13;16.70;99.90
37050;DHT22;22958;51.232;6.826;2023-07-13T05:52:39;16.70;99.90
37050;DHT22;22958;51.232;6.826;2023-07-13T05:55:04;16.70;99.90
37050;DHT22;22958;51.232;6.826;2023-07-13T05:57:31;16.60;99.90
37050;DHT22;22958;51.232;6.826;2023-07-13T05:59:57;16.70;99.90
37050;DHT22;22958;51.232;6.826;2023-07-13T06:02:22;16.80;99.90
37050;DHT22;22958;51.232;6.826;2023-07-13T06:04:48;16.80;99.90
37050;DHT22;22958;51.232;6.826;2023-07-13T06:07:14;16.80;99.90
37050;DHT22;22958;51.232;6.826;2023-07-13T06:09:39;16.80;99.90
37050;DHT22;22958;51.232;6.826;2023-07-13T06:12:05;16.90;99.90
37050;DHT22;22958;51.232;6.826;2023-07-13T06:14:31;16.90;99.90
37050;DHT22;22958;51.232;6.826;2023-07-13T06:16:56;16.80;99.90
37050;DHT22;22958;51.232;6.826;2023-07-13T06:19:22;16.80;99.90
37050;DHT22;22958;51.232;6.826;2023-07-13T06:21:47;16.80;99.90
37050;DHT22;22958;51.232;6.826;2023-07-13T06:24:13;16.80;99.90
37050;DHT22;22958;51.232;6.826;2023-07-13T06:26:38;16.90;99.90
37050;DHT22;22958;51.232;6.826;2023-07-13T06:29:04;16.90;99.90
37050;DHT22;22958;51.232;6.826;2023-07-13T06:31:30;17.00;99.90
37050;DHT22;22958;51.232;6.826;2023-07-13T06:33:56;17.10;99.90
37050;DHT22;22958;51.232;6.826;2023-07-13T06:36:21;17.20;99.90
37050;DHT22;22958;51.232;6.826;2023-07-13T06:38:47;17.20;99.90
37050;DHT22;22958;51.232;6.826;2023-07-13T06:41:12;17.20;99.90
37050;DHT22;22958;51.232;6.826;2023-07-13T06:43:38;17.30;99.90
37050;DHT22;22958;51.232;6.826;2023-07-13T06:46:03;17.40;99.90
37050;DHT22;22958;51.232;6.826;2023-07-13T06:48:29;17.70;99.90
37050;DHT22;22958;51.232;6.826;2023-07-13T06:50:55;17.90;99.90
37050;DHT22;22958;51.232;6.826;2023-07-13T06:53:21;18.00;99.90
37050;DHT22;22958;51.232;6.826;2023-07-13T06:55:47;17.70;99.90
37050;DHT22;22958;51.232;6.826;2023-07-13T06:58:15;18.00;99.90
37050;DHT22;22958;51.232;6.826;2023-07-13T07:00:41;18.00;99.90
37050;DHT22;22958;51.232;6.826;2023-07-13T07:03:07;18.00;99.90
37050;DHT22;22958;51.232;6.826;2023-07-13T07:05:32;17.90;99.90
37050;DHT22;22958;51.232;6.826;2023-07-13T07:07:58;17.80;99.90
37050;DHT22;22958;51.232;6.826;2023-07-13T07:10:24;17.90;99.90
37050;DHT22;22958;51.232;6.826;2023-07-13T07:12:49;17.80;99.90
37050;DHT22;22958;51.232;6.826;2023-07-13T07:15:15;17.80;99.90
37050;DHT22;22958;51.232;6.826;2023-07-13T07:17:41;17.90;99.90
37050;DHT22;22958;51.232;6.826;2023-07-13T07:20:07;18.00;99.90
37050;DHT22;22958;51.232;6.826;2023-07-13T07:22:32;17.90;99.90
37050;DHT22;22958;51.232;6.826;2023-07-13T07:24:58;17.80;99.90
37050;DHT22;22958;51.232;6.826;2023-07-13T07:27:24;17.90;99.90
37050;DHT22;22958;51.232;6.826;2023-07-13T07:29:50;18.00;99.90
37050;DHT22;22958;51.232;6.826;2023-07-13T07:32:16;18.00;99.90
37050;DHT22;22958;51.232;6.826;2023-07-13T07:34:41;18.20;99.90
37050;DHT22;22958;51.232;6.826;2023-07-13T07:37:09;18.20;99.90
37050;DHT22;22958;51.232;6.826;2023-07-13T07:39:36;18.40;99.90
37050;DHT22;22958;51.232;6.826;2023-07-13T07:42:01;18.50;99.90
37050;DHT22;22958;51.232;6.826;2023-07-13T07:44:27;18.60;99.90
37050;DHT22;22958;51.232;6.826;2023-07-13T07:46:53;18.40;99.90
37050;DHT22;22958;51.232;6.826;2023-07-13T07:49:19;18.30;99.90
37050;DHT22;22958;51.232;6.826;2023-07-13T07:51:45;18.50;99.90
37050;DHT22;22958;51.232;6.826;2023-07-13T07:54:11;18.90;99.90
37050;DHT22;22958;51.232;6.826;2023-07-13T07:56:36;18.90;99.90
37050;DHT22;22958;51.232;6.826;2023-07-13T07:59:02;19.10;99.90
37050;DHT22;22958;51.232;6.826;2023-07-13T08:01:27;19.10;99.90
37050;DHT22;22958;51.232;6.826;2023-07-13T08:03:53;19.00;99.90
37050;DHT22;22958;51.232;6.826;2023-07-13T08:06:18;19.00;99.90
37050;DHT22;22958;51.232;6.826;2023-07-13T08:08:45;19.00;99.90
37050;DHT22;22958;51.232;6.826;2023-07-13T08:11:11;19.00;99.90
37050;DHT22;22958;51.232;6.826;2023-07-13T08:13:37;19.10;99.90
37050;DHT22;22958;51.232;6.826;2023-07-13T08:16:04;19.20;99.90
37050;DHT22;22958;51.232;6.826;2023-07-13T08:18:30;19.30;99.90
37050;DHT22;22958;51.232;6.826;2023-07-13T08:20:56;19.20;99.90
37050;DHT22;22958;51.232;6.826;2023-07-13T08:23:22;19.20;99.90
37050;DHT22;22958;51.232;6.826;2023-07-13T08:25:55;19.30;99.90
37050;DHT22;22958;51.232;6.826;2023-07-13T08:28:21;19.50;99.90
37050;DHT22;22958;51.232;6.826;2023-07-13T08:30:47;19.60;99.90
37050;DHT22;22958;51.232;6.826;2023-07-13T08:33:15;19.60;99.90
37050;DHT22;22958;51.232;6.826;2023-07-13T08:35:40;19.70;99.90
37050;DHT22;22958;51.232;6.826;2023-07-13T08:38:06;19.80;99.90
37050;DHT22;22958;51.232;6.826;2023-07-13T08:40:34;19.70;99.90
37050;DHT22;22958;51.232;6.826;2023-07-13T08:43:00;19.70;99.90
37050;DHT22;22958;51.232;6.826;2023-07-13T08:48:19;20.10;99.90
37050;DHT22;22958;51.232;6.826;2023-07-13T08:53:49;20.30;99.90
37050;DHT22;22958;51.232;6.826;2023-07-13T08:56:19;20.50;99.90
37050;DHT22;22958;51.232;6.826;2023-07-13T08:58:51;20.20;99.90
37050;DHT22;22958;51.232;6.826;2023-07-13T09:04:26;20.20;99.90
37050;DHT22;22958;51.232;6.826;2023-07-13T09:09:55;20.20;99.90
37050;DHT22;22958;51.232;6.826;2023-07-13T09:15:32;20.40;99.90
37050;DHT22;22958;51.232;6.826;2023-07-13T09:18:23;20.70;99.90
37050;DHT22;22958;51.232;6.826;2023-07-13T09:21:08;20.60;99.90
37050;DHT22;22958;51.232;6.826;2023-07-13T09:23:35;20.20;99.90
37050;DHT22;22958;51.232;6.826;2023-07-13T09:26:11;20.20;99.90
37050;DHT22;22958;51.232;6.826;2023-07-13T09:28:47;20.40;99.90
37050;DHT22;22958;51.232;6.826;2023-07-13T09:31:16;20.20;99.90
37050;DHT22;22958;51.232;6.826;2023-07-13T09:33:42;20.20;99.90
37050;DHT22;22958;51.232;6.826;2023-07-13T09:38:44;20.10;99.90
37050;DHT22;22958;51.232;6.826;2023-07-13T09:41:26;20.30;99.90
37050;DHT22;22958;51.232;6.826;2023-07-13T09:44:09;20.20;99.90
37050;DHT22;22958;51.232;6.826;2023-07-13T09:46:35;20.30;99.90
37050;DHT22;22958;51.232;6.826;2023-07-13T09:49:00;20.40;99.90
37050;DHT22;22958;51.232;6.826;2023-07-13T09:51:26;20.70;99.90
37050;DHT22;22958;51.232;6.826;2023-07-13T09:53:51;20.90;99.90
37050;DHT22;22958;51.232;6.826;2023-07-13T09:56:27;20.50;99.90
37050;DHT22;22958;51.232;6.826;2023-07-13T09:58:53;20.40;99.90
37050;DHT22;22958;51.232;6.826;2023-07-13T10:01:37;20.40;99.90
37050;DHT22;22958;51.232;6.826;2023-07-13T10:04:10;20.60;99.90
37050;DHT22;22958;51.232;6.826;2023-07-13T10:06:38;20.50;99.90
37050;DHT22;22958;51.232;6.826;2023-07-13T10:09:07;20.70;99.90
37050;DHT22;22958;51.232;6.826;2023-07-13T10:11:35;21.10;99.90
37050;DHT22;22958;51.232;6.826;2023-07-13T10:14:10;21.10;99.90
37050;DHT22;22958;51.232;6.826;2023-07-13T10:16:36;21.00;99.90
37050;DHT22;22958;51.232;6.826;2023-07-13T10:19:20;21.10;99.90
37050;DHT22;22958;51.232;6.826;2023-07-13T10:21:55;21.40;99.90
37050;DHT22;22958;51.232;6.826;2023-07-13T10:24:26;21.20;99.90
37050;DHT22;22958;51.232;6.826;2023-07-13T10:32:34;21.40;99.90
37050;DHT22;22958;51.232;6.826;2023-07-13T10:34:59;21.30;99.90
37050;DHT22;22958;51.232;6.826;2023-07-13T10:37:29;21.30;99.90
37050;DHT22;22958;51.232;6.826;2023-07-13T10:39:57;21.20;99.90
37050;DHT22;22958;51.232;6.826;2023-07-13T10:42:40;21.40;99.90
37050;DHT22;22958;51.232;6.826;2023-07-13T10:45:18;21.40;99.90
37050;DHT22;22958;51.232;6.826;2023-07-13T10:47:45;21.90;99.90
37050;DHT22;22958;51.232;6.826;2023-07-13T10:50:17;21.80;99.90
37050;DHT22;22958;51.232;6.826;2023-07-13T10:52:49;21.40;99.90
37050;DHT22;22958;51.232;6.826;2023-07-13T10:58:03;20.90;99.90
37050;DHT22;22958;51.232;6.826;2023-07-13T11:00:44;20.70;99.90
37050;DHT22;22958;51.232;6.826;2023-07-13T11:03:14;20.80;99.90
37050;DHT22;22958;51.232;6.826;2023-07-13T11:05:40;21.10;99.90
37050;DHT22;22958;51.232;6.826;2023-07-13T11:08:32;21.50;99.90
37050;DHT22;22958;51.232;6.826;2023-07-13T11:10:59;21.80;99.90
37050;DHT22;22958;51.232;6.826;2023-07-13T11:16:35;22.60;99.90
37050;DHT22;22958;51.232;6.826;2023-07-13T11:21:27;22.70;99.90
37050;DHT22;22958;51.232;6.826;2023-07-13T11:24:16;22.60;99.90
37050;DHT22;22958;51.232;6.826;2023-07-13T11:29:32;23.30;99.90
37050;DHT22;22958;51.232;6.826;2023-07-13T11:32:01;23.70;99.90
37050;DHT22;22958;51.232;6.826;2023-07-13T11:34:45;23.10;99.90
37050;DHT22;22958;51.232;6.826;2023-07-13T11:37:12;22.60;99.90
37050;DHT22;22958;51.232;6.826;2023-07-13T11:39:42;22.20;99.90
37050;DHT22;22958;51.232;6.826;2023-07-13T11:42:17;22.10;99.90
37050;DHT22;22958;51.232;6.826;2023-07-13T11:44:47;22.20;99.90
37050;DHT22;22958;51.232;6.826;2023-07-13T11:47:21;23.10;99.90
37050;DHT22;22958;51.232;6.826;2023-07-13T11:49:53;23.60;99.90
37050;DHT22;22958;51.232;6.826;2023-07-13T11:52:30;23.60;99.90
37050;DHT22;22958;51.232;6.826;2023-07-13T11:54:57;24.40;99.90
37050;DHT22;22958;51.232;6.826;2023-07-13T11:57:33;24.90;99.90
37050;DHT22;22958;51.232;6.826;2023-07-13T12:00:03;25.90;97.90
37050;DHT22;22958;51.232;6.826;2023-07-13T12:02:39;25.60;97.30
37050;DHT22;22958;51.232;6.826;2023-07-13T12:05:09;25.90;97.80
37050;DHT22;22958;51.232;6.826;2023-07-13T12:07:36;26.20;95.50
37050;DHT22;22958;51.232;6.826;2023-07-13T12:10:27;25.30;96.60
37050;DHT22;22958;51.232;6.826;2023-07-13T12:13:02;24.50;98.20
37050;DHT22;22958;51.232;6.826;2023-07-13T12:15:43;24.30;97.90
37050;DHT22;22958;51.232;6.826;2023-07-13T12:18:19;23.70;99.30
37050;DHT22;22958;51.232;6.826;2023-07-13T12:20:46;23.20;99.40
37050;DHT22;22958;51.232;6.826;2023-07-13T12:23:27;23.10;98.70
37050;DHT22;22958;51.232;6.826;2023-07-13T12:25:53;23.30;98.50
37050;DHT22;22958;51.232;6.826;2023-07-13T12:28:21;23.40;99.10
37050;DHT22;22958;51.232;6.826;2023-07-13T12:30:48;23.80;98.30
37050;DHT22;22958;51.232;6.826;2023-07-13T12:33:14;23.50;98.30
37050;DHT22;22958;51.232;6.826;2023-07-13T12:35:42;23.40;98.60
37050;DHT22;22958;51.232;6.826;2023-07-13T12:38:11;23.60;98.00
37050;DHT22;22958;51.232;6.826;2023-07-13T12:40:37;23.70;95.90
37050;DHT22;22958;51.232;6.826;2023-07-13T12:43:04;24.20;95.50
37050;DHT22;22958;51.232;6.826;2023-07-13T12:45:32;25.30;92.30
37050;DHT22;22958;51.232;6.826;2023-07-13T12:48:14;25.50;92.00
37050;DHT22;22958;51.232;6.826;2023-07-13T12:50:42;26.30;90.10
37050;DHT22;22958;51.232;6.826;2023-07-13T12:53:16;27.60;85.00
37050;DHT22;22958;51.232;6.826;2023-07-13T12:55:54;26.70;85.00
37050;DHT22;22958;51.232;6.826;2023-07-13T12:58:35;25.90;87.80
37050;DHT22;22958;51.232;6.826;2023-07-13T13:01:02;25.30;88.80
37050;DHT22;22958;51.232;6.826;2023-07-13T13:03:33;26.10;88.10
37050;DHT22;22958;51.232;6.826;2023-07-13T13:06:05;26.40;85.30
37050;DHT22;22958;51.232;6.826;2023-07-13T13:08:33;24.90;89.60
37050;DHT22;22958;51.232;6.826;2023-07-13T13:10:59;24.10;91.40
37050;DHT22;22958;51.232;6.826;2023-07-13T13:13:25;24.50;91.60
37050;DHT22;22958;51.232;6.826;2023-07-13T13:15:50;24.00;91.50
37050;DHT22;22958;51.232;6.826;2023-07-13T13:18:18;23.80;92.60
37050;DHT22;22958;51.232;6.826;2023-07-13T13:20:45;23.70;93.10
37050;DHT22;22958;51.232;6.826;2023-07-13T13:23:14;23.40;94.00
37050;DHT22;22958;51.232;6.826;2023-07-13T13:25:46;23.40;95.00
37050;DHT22;22958;51.232;6.826;2023-07-13T13:28:17;24.00;94.00
37050;DHT22;22958;51.232;6.826;2023-07-13T13:30:44;25.60;91.90
37050;DHT22;22958;51.232;6.826;2023-07-13T13:33:15;25.90;89.20
37050;DHT22;22958;51.232;6.826;2023-07-13T13:35:42;25.10;90.40
37050;DHT22;22958;51.232;6.826;2023-07-13T13:38:12;24.10;91.90
37050;DHT22;22958;51.232;6.826;2023-07-13T13:40:40;23.20;93.40
37050;DHT22;22958;51.232;6.826;2023-07-13T13:43:22;23.30;94.30
37050;DHT22;22958;51.232;6.826;2023-07-13T13:45:52;23.60;94.10
37050;DHT22;22958;51.232;6.826;2023-07-13T13:48:20;23.60;94.00
37050;DHT22;22958;51.232;6.826;2023-07-13T13:50:48;23.90;93.70
37050;DHT22;22958;51.232;6.826;2023-07-13T13:53:14;24.60;92.70
37050;DHT22;22958;51.232;6.826;2023-07-13T13:55:40;25.10;91.70
37050;DHT22;22958;51.232;6.826;2023-07-13T13:58:08;24.60;92.10
37050;DHT22;22958;51.232;6.826;2023-07-13T14:00:34;24.30;92.50
37050;DHT22;22958;51.232;6.826;2023-07-13T14:03:00;23.50;93.60
37050;DHT22;22958;51.232;6.826;2023-07-13T14:05:27;23.50;94.50
37050;DHT22;22958;51.232;6.826;2023-07-13T14:07:53;23.50;94.70
37050;DHT22;22958;51.232;6.826;2023-07-13T14:10:19;23.10;95.30
37050;DHT22;22958;51.232;6.826;2023-07-13T14:12:55;23.10;95.80
37050;DHT22;22958;51.232;6.826;2023-07-13T14:15:26;23.40;95.30
37050;DHT22;22958;51.232;6.826;2023-07-13T14:17:53;24.10;94.80
37050;DHT22;22958;51.232;6.826;2023-07-13T14:20:21;25.20;92.70
37050;DHT22;22958;51.232;6.826;2023-07-13T14:22:49;25.80;91.00
37050;DHT22;22958;51.232;6.826;2023-07-13T14:25:16;26.30;90.20
37050;DHT22;22958;51.232;6.826;2023-07-13T14:27:44;26.80;88.30
37050;DHT22;22958;51.232;6.826;2023-07-13T14:30:17;26.00;89.80
37050;DHT22;22958;51.232;6.826;2023-07-13T14:32:43;24.30;92.00
37050;DHT22;22958;51.232;6.826;2023-07-13T14:35:13;24.00;93.30
37050;DHT22;22958;51.232;6.826;2023-07-13T14:37:43;23.80;93.80
37050;DHT22;22958;51.232;6.826;2023-07-13T14:40:24;23.30;95.00
37050;DHT22;22958;51.232;6.826;2023-07-13T14:42:50;23.00;96.20
37050;DHT22;22958;51.232;6.826;2023-07-13T14:45:17;23.00;96.30
37050;DHT22;22958;51.232;6.826;2023-07-13T14:47:44;22.90;96.70
37050;DHT22;22958;51.232;6.826;2023-07-13T14:50:18;22.70;96.50
37050;DHT22;22958;51.232;6.826;2023-07-13T14:52:45;22.60;97.00
37050;DHT22;22958;51.232;6.826;2023-07-13T14:55:15;22.60;97.30
37050;DHT22;22958;51.232;6.826;2023-07-13T14:57:41;22.60;97.90
37050;DHT22;22958;51.232;6.826;2023-07-13T15:00:17;22.60;98.60
37050;DHT22;22958;51.232;6.826;2023-07-13T15:02:54;22.40;99.70
37050;DHT22;22958;51.232;6.826;2023-07-13T15:05:23;22.20;99.90
37050;DHT22;22958;51.232;6.826;2023-07-13T15:07:51;21.20;99.90
37050;DHT22;22958;51.232;6.826;2023-07-13T15:10:19;20.30;99.90
37050;DHT22;22958;51.232;6.826;2023-07-13T15:12:45;19.90;99.90
37050;DHT22;22958;51.232;6.826;2023-07-13T15:15:12;19.80;99.90
37050;DHT22;22958;51.232;6.826;2023-07-13T15:17:43;19.80;99.90
37050;DHT22;22958;51.232;6.826;2023-07-13T15:22:40;19.90;99.90
37050;DHT22;22958;51.232;6.826;2023-07-13T15:25:14;20.00;99.90
37050;DHT22;22958;51.232;6.826;2023-07-13T15:27:40;20.20;99.90
37050;DHT22;22958;51.232;6.826;2023-07-13T15:30:06;20.40;99.90
37050;DHT22;22958;51.232;6.826;2023-07-13T15:32:32;20.60;99.90
37050;DHT22;22958;51.232;6.826;2023-07-13T15:34:57;20.70;99.90
37050;DHT22;22958;51.232;6.826;2023-07-13T15:37:23;20.80;99.90
37050;DHT22;22958;51.232;6.826;2023-07-13T15:39:49;20.80;99.90
37050;DHT22;22958;51.232;6.826;2023-07-13T15:42:19;20.70;99.90
37050;DHT22;22958;51.232;6.826;2023-07-13T15:44:46;20.60;99.90
37050;DHT22;22958;51.232;6.826;2023-07-13T15:47:12;20.50;99.90
37050;DHT22;22958;51.232;6.826;2023-07-13T15:49:39;20.50;99.90
37050;DHT22;22958;51.232;6.826;2023-07-13T15:52:05;20.40;99.90
37050;DHT22;22958;51.232;6.826;2023-07-13T15:54:31;20.30;99.90
37050;DHT22;22958;51.232;6.826;2023-07-13T15:57:00;20.30;99.90
37050;DHT22;22958;51.232;6.826;2023-07-13T15:59:26;20.30;99.90
37050;DHT22;22958;51.232;6.826;2023-07-13T16:01:52;20.20;99.90
37050;DHT22;22958;51.232;6.826;2023-07-13T16:04:17;20.40;99.90
37050;DHT22;22958;51.232;6.826;2023-07-13T16:06:44;20.40;99.90
37050;DHT22;22958;51.232;6.826;2023-07-13T16:09:18;20.40;99.90
37050;DHT22;22958;51.232;6.826;2023-07-13T16:11:45;20.40;99.90
37050;DHT22;22958;51.232;6.826;2023-07-13T16:14:14;20.50;99.90